Time;durP1;ratioP1;P1;durP2;ratioP2;P2;SDS_P1;SDS_P2;PMS_P1;PMS_P2;Temp;Humidity;BMP_temperature;BMP_pressure;BME280_temperature;BME280_humidity;BME280_pressure;Samples;Min_cycle;Max_cycle;Signal;HPM_P1;HPM_P2
2022/03/23 00:00:55;;;;;;;;;18.25;17.25;;;;;18.03;49.57;103103.75;4913180;29;10410;-70
2022/03/23 00:03:20;;;;;;;;;13.00;13.00;;;;;18.04;49.53;103100.25;4912195;29;8840;-72
2022/03/23 00:05:45;;;;;;;;;15.25;14.50;;;;;18.03;49.22;103107.31;4913302;29;8856;-71
2022/03/23 00:08:11;;;;;;;;;17.00;16.00;;;;;18.04;49.31;103101.13;4913008;29;8797;-71
2022/03/23 00:10:36;;;;;;;;;14.50;14.50;;;;;18.02;49.17;103099.31;4912611;29;8868;-70
2022/03/23 00:13:03;;;;;;;;;16.25;15.50;;;;;18.03;49.53;103106.41;4916534;29;8800;-71
2022/03/23 00:15:30;;;;;;;;;14.25;13.00;;;;;18.01;49.23;103103.72;4912723;29;8804;-71
2022/03/23 00:17:55;;;;;;;;;14.25;14.00;;;;;18.01;49.19;103103.72;4913107;29;10249;-70
2022/03/23 00:20:21;;;;;;;;;17.50;16.75;;;;;18.00;48.94;103103.66;4913465;29;10347;-71
2022/03/23 00:22:46;;;;;;;;;18.50;14.50;;;;;18.00;49.42;103104.56;4913800;29;8820;-70
2022/03/23 00:25:12;;;;;;;;;16.00;14.50;;;;;18.00;49.01;103101.00;4916670;29;9021;-71
2022/03/23 00:27:37;;;;;;;;;14.00;14.00;;;;;18.00;49.26;103101.00;4916689;29;8827;-70
2022/03/23 00:30:05;;;;;;;;;16.00;16.00;;;;;17.97;48.96;103093.91;4915819;29;8804;-71
2022/03/23 00:32:33;;;;;;;;;18.25;17.00;;;;;17.97;49.02;103093.91;4916540;29;8816;-70
2022/03/23 00:34:58;;;;;;;;;16.50;16.50;;;;;17.94;49.08;103096.47;4916465;29;10365;-71
2022/03/23 00:37:23;;;;;;;;;17.00;17.00;;;;;17.98;48.95;103094.81;4915843;29;10185;-71
2022/03/23 00:39:49;;;;;;;;;16.25;14.00;;;;;17.95;49.22;103095.63;4916692;29;8907;-71
2022/03/23 00:42:14;;;;;;;;;18.25;16.75;;;;;17.96;49.03;103099.16;4916446;29;8804;-71
2022/03/23 00:44:40;;;;;;;;;14.75;14.00;;;;;17.95;49.02;103100.00;4915867;29;8854;-70
2022/03/23 00:47:05;;;;;;;;;13.50;13.50;;;;;17.92;49.11;103092.00;4916035;29;8824;-71
2022/03/23 00:49:30;;;;;;;;;18.50;13.25;;;;;17.95;48.80;103102.66;4916615;29;8859;-72
2022/03/23 00:51:56;;;;;;;;;18.00;15.00;;;;;17.95;49.15;103098.28;4915458;29;8819;-72
2022/03/23 00:54:22;;;;;;;;;13.25;13.00;;;;;17.95;48.73;103094.72;4916264;29;8816;-71
2022/03/23 00:56:50;;;;;;;;;17.00;15.75;;;;;17.93;48.97;103093.78;4916321;29;8812;-70
2022/03/23 00:59:19;;;;;;;;;15.75;15.75;;;;;17.92;48.77;103087.59;4915132;29;10157;-71
2022/03/23 01:01:45;;;;;;;;;16.00;14.25;;;;;17.93;49.09;103096.41;4916691;29;10325;-71
2022/03/23 01:04:12;;;;;;;;;12.25;12.25;;;;;17.93;48.90;103101.69;4916146;29;10234;-72
2022/03/23 01:06:37;;;;;;;;;15.50;15.50;;;;;17.91;48.86;103087.56;4914904;29;9581;-72
2022/03/23 01:09:03;;;;;;;;;16.25;15.50;;;;;17.92;48.91;103090.22;4915846;29;10270;-71
2022/03/23 01:11:28;;;;;;;;;16.00;15.50;;;;;17.92;49.05;103089.38;4916166;29;8931;-72
2022/03/23 01:13:54;;;;;;;;;15.00;14.00;;;;;17.92;48.93;103086.72;4918336;29;8804;-71
2022/03/23 01:16:19;;;;;;;;;16.25;15.50;;;;;17.90;48.56;103085.75;4915976;29;8842;-70
2022/03/23 01:18:44;;;;;;;;;17.50;14.50;;;;;17.90;48.64;103089.31;4915033;29;8875;-71
2022/03/23 01:21:09;;;;;;;;;17.00;15.50;;;;;17.90;48.66;103085.75;4915527;29;8796;-71
2022/03/23 01:23:35;;;;;;;;;16.50;14.50;;;;;17.88;48.92;103089.25;4915875;29;8805;-71
2022/03/23 01:26:00;;;;;;;;;14.50;14.00;;;;;17.87;48.65;103083.94;4914595;29;8895;-71
2022/03/23 01:28:25;;;;;;;;;18.25;14.50;;;;;17.88;48.99;103084.84;4915708;29;8962;-71
2022/03/23 01:30:51;;;;;;;;;16.50;14.75;;;;;17.86;48.67;103077.75;4915906;29;8816;-71
2022/03/23 01:33:16;;;;;;;;;14.50;14.00;;;;;17.86;48.70;103075.13;4914630;29;8801;-71
2022/03/23 01:35:42;;;;;;;;;14.50;14.00;;;;;17.88;48.66;103079.56;4914625;29;8804;-72
2022/03/23 01:38:07;;;;;;;;;15.00;12.50;;;;;17.87;48.79;103083.94;4915381;29;8788;-71
2022/03/23 01:40:32;;;;;;;;;15.50;14.00;;;;;17.86;48.70;103079.50;4914726;29;8828;-70
2022/03/23 01:42:57;;;;;;;;;15.50;13.50;;;;;17.85;48.41;103077.72;4914913;29;8808;-71
2022/03/23 01:45:25;;;;;;;;;14.75;13.00;;;;;17.84;48.72;103076.84;4915502;29;8843;-72
2022/03/23 01:47:51;;;;;;;;;13.75;13.75;;;;;17.85;48.69;103083.00;4915202;29;8870;-71
2022/03/23 01:50:16;;;;;;;;;16.25;16.25;;;;;17.86;48.45;103079.50;4915363;29;10869;-71
2022/03/23 01:52:42;;;;;;;;;15.00;14.25;;;;;17.85;48.67;103077.72;4915389;29;9022;-71
2022/03/23 01:55:11;;;;;;;;;18.50;17.75;;;;;17.83;48.33;103072.41;4914461;29;8941;-72
2022/03/23 01:57:43;;;;;;;;;17.00;16.00;;;;;17.84;48.59;103068.91;4915086;29;8927;-71
2022/03/23 02:00:09;;;;;;;;;15.75;15.50;;;;;17.84;48.31;103076.84;4914803;29;10083;-71
2022/03/23 02:02:34;;;;;;;;;15.00;14.25;;;;;17.83;48.48;103068.84;4914236;29;10110;-71
2022/03/23 02:05:01;;;;;;;;;19.50;18.25;;;;;17.82;48.66;103067.06;4914645;29;10194;-71
2022/03/23 02:07:26;;;;;;;;;16.75;16.50;;;;;17.81;48.60;103067.91;4916511;29;8836;-71
2022/03/23 02:09:51;;;;;;;;;16.25;15.00;;;;;17.81;48.26;103071.44;4916008;29;10357;-71
2022/03/23 02:12:17;;;;;;;;;19.25;17.50;;;;;17.79;48.31;103066.97;4918706;29;8810;-72
2022/03/23 02:14:42;;;;;;;;;16.50;16.50;;;;;17.80;48.37;103064.41;4915741;29;8899;-71
2022/03/23 02:17:08;;;;;;;;;17.75;16.50;;;;;17.79;48.46;103062.59;4914232;29;8792;-72
2022/03/23 02:19:35;;;;;;;;;16.25;14.50;;;;;17.78;48.14;103057.25;4915173;29;8801;-71
2022/03/23 02:22:01;;;;;;;;;16.00;14.00;;;;;17.80;48.22;103058.22;4913859;29;10017;-71
2022/03/23 02:24:28;;;;;;;;;13.00;12.00;;;;;17.79;48.27;103061.69;4914691;29;10198;-71
2022/03/23 02:26:54;;;;;;;;;19.50;16.50;;;;;17.78;48.18;103058.16;4914139;29;8939;-70
2022/03/23 02:29:23;;;;;;;;;16.50;14.25;;;;;17.80;48.10;103064.41;4914031;29;10185;-70
2022/03/23 02:31:49;;;;;;;;;15.50;14.50;;;;;17.78;48.10;103060.78;4914703;29;10166;-72
2022/03/23 02:34:14;;;;;;;;;17.00;15.50;;;;;17.76;48.36;103062.53;4914187;29;10314;-72
2022/03/23 02:36:40;;;;;;;;;14.00;14.00;;;;;17.78;48.04;103058.16;4914156;29;8803;-72
2022/03/23 02:39:06;;;;;;;;;15.25;15.00;;;;;17.76;48.42;103058.97;4914139;29;8825;-71
2022/03/23 02:41:31;;;;;;;;;18.25;16.00;;;;;17.71;48.55;103050.91;4914841;29;8811;-72
2022/03/23 02:43:57;;;;;;;;;14.25;12.50;;;;;17.76;48.31;103061.63;4914270;29;8820;-71
2022/03/23 02:46:23;;;;;;;;;16.00;15.50;;;;;17.75;48.19;103065.09;4914252;29;8843;-70
2022/03/23 02:48:51;;;;;;;;;17.00;16.75;;;;;17.75;48.24;103062.47;4914387;29;8882;-70
2022/03/23 02:51:17;;;;;;;;;17.25;16.75;;;;;17.74;48.39;103058.03;4913615;29;8835;-71
2022/03/23 03:02:28;;;;;;;;;18.75;17.00;;;;;17.72;48.15;103059.75;4913738;29;10717;-71
2022/03/23 03:04:54;;;;;;;;;13.50;13.50;;;;;17.72;48.07;103065.94;4913136;29;10183;-71
2022/03/23 03:07:19;;;;;;;;;16.50;15.50;;;;;17.73;48.11;103066.81;4913663;29;10067;-71
2022/03/23 03:09:45;;;;;;;;;16.00;15.25;;;;;17.71;48.16;103064.13;4914001;29;9576;-71
2022/03/23 03:12:16;;;;;;;;;16.00;14.25;;;;;17.70;48.06;103062.31;4916648;29;8803;-71
2022/03/23 03:14:44;;;;;;;;;15.25;15.25;;;;;17.70;47.93;103075.53;4914126;29;9544;-71
2022/03/23 03:17:09;;;;;;;;;14.00;14.00;;;;;17.70;48.22;103072.91;4913355;29;10262;-71
2022/03/23 03:19:35;;;;;;;;;15.00;14.00;;;;;17.72;48.01;103076.50;4913139;29;10180;-71
2022/03/23 03:22:01;;;;;;;;;15.50;15.50;;;;;17.70;48.04;103067.59;4913902;29;8796;-71
2022/03/23 03:24:27;;;;;;;;;16.00;15.00;;;;;17.71;47.84;103076.44;4913728;29;11635;-71
2022/03/23 03:26:53;;;;;;;;;15.00;15.00;;;;;17.70;47.85;103075.53;4912791;29;8856;-70
2022/03/23 03:29:18;;;;;;;;;14.25;14.25;;;;;17.71;47.83;103082.63;4913840;29;10333;-71
2022/03/23 03:31:44;;;;;;;;;18.50;16.50;;;;;17.66;48.10;103071.03;4913758;29;10984;-71
2022/03/23 03:34:09;;;;;;;;;16.50;16.50;;;;;17.68;47.86;103082.53;4912720;29;8793;-72
2022/03/23 03:36:36;;;;;;;;;14.75;14.50;;;;;17.68;47.81;103082.53;4913846;29;8859;-71
2022/03/23 03:39:02;;;;;;;;;20.50;17.50;;;;;17.67;47.73;103077.19;4913326;29;8799;-72
2022/03/23 03:41:27;;;;;;;;;17.50;15.75;;;;;17.68;47.95;103076.34;4913352;29;10232;-70
2022/03/23 03:43:53;;;;;;;;;19.25;15.50;;;;;17.67;48.00;103074.56;4913289;29;10194;-71
2022/03/23 03:46:19;;;;;;;;;16.00;15.00;;;;;17.67;47.83;103079.84;4913497;29;8903;-71
2022/03/23 03:48:44;;;;;;;;;14.50;13.75;;;;;17.66;48.07;103089.50;4913199;29;8800;-72
2022/03/23 03:51:10;;;;;;;;;19.00;16.50;;;;;17.66;47.84;103080.69;4913226;29;10530;-71
2022/03/23 03:53:35;;;;;;;;;18.25;16.50;;;;;17.64;48.18;103077.13;4912785;29;8824;-72
2022/03/23 03:56:01;;;;;;;;;17.50;15.25;;;;;17.66;48.09;103083.31;4912959;29;8808;-71
2022/03/23 03:58:26;;;;;;;;;15.50;14.75;;;;;17.67;47.73;103085.13;4915529;29;8843;-71
2022/03/23 04:00:51;;;;;;;;;21.50;16.00;;;;;17.66;47.62;103078.03;4916415;29;8971;-72
2022/03/23 04:03:17;;;;;;;;;15.25;14.00;;;;;17.65;47.69;103082.47;4916849;29;8891;-72
2022/03/23 04:05:42;;;;;;;;;17.00;17.00;;;;;17.65;47.69;103079.81;4917176;29;8848;-71
2022/03/23 04:08:08;;;;;;;;;16.25;16.25;;;;;17.64;47.98;103085.03;4916048;29;8887;-71
2022/03/23 04:10:35;;;;;;;;;20.25;19.00;;;;;17.62;47.97;103076.19;4917503;29;8808;-71
2022/03/23 04:13:00;;;;;;;;;15.00;15.00;;;;;17.62;47.87;103081.47;4920238;29;10257;-71
2022/03/23 04:15:26;;;;;;;;;16.25;16.25;;;;;17.63;47.72;103085.88;4916187;29;10214;-72
2022/03/23 04:17:52;;;;;;;;;18.75;16.00;;;;;17.63;47.63;103089.44;4917015;29;8816;-70
2022/03/23 04:20:22;;;;;;;;;16.75;15.50;;;;;17.63;47.62;103088.53;4917057;29;8927;-72
2022/03/23 04:22:48;;;;;;;;;16.50;15.75;;;;;17.61;47.69;103088.50;4916263;29;10473;-71
2022/03/23 04:25:15;;;;;;;;;14.75;14.75;;;;;17.61;47.43;103091.16;4916660;29;10349;-71
2022/03/23 04:27:45;;;;;;;;;15.25;14.25;;;;;17.61;47.70;103084.97;4916829;29;8896;-72
2022/03/23 04:30:12;;;;;;;;;19.25;14.00;;;;;17.61;47.58;103096.44;4915858;29;10173;-71
2022/03/23 04:32:37;;;;;;;;;16.25;16.25;;;;;17.59;47.91;103089.28;4917140;29;10363;-72
2022/03/23 04:35:04;;;;;;;;;17.50;14.25;;;;;17.59;47.56;103094.56;4916772;29;10518;-71
2022/03/23 04:37:30;;;;;;;;;15.25;15.25;;;;;17.58;47.68;103098.09;4916347;29;8791;-71
2022/03/23 04:39:55;;;;;;;;;16.50;16.00;;;;;17.59;47.51;103092.84;4916472;29;10262;-72
2022/03/23 04:42:21;;;;;;;;;16.00;15.75;;;;;17.58;47.39;103090.16;4916514;29;8987;-71
2022/03/23 04:44:46;;;;;;;;;15.25;14.00;;;;;17.58;47.58;103091.06;4916282;29;8955;-72
2022/03/23 04:47:11;;;;;;;;;17.00;15.75;;;;;17.57;47.35;103099.84;4916500;29;9946;-71
2022/03/23 04:49:36;;;;;;;;;15.50;14.25;;;;;17.57;47.53;103096.28;4920995;29;8847;-70
2022/03/23 04:52:04;;;;;;;;;14.75;14.00;;;;;17.57;47.68;103105.13;4918667;29;8828;-71
2022/03/23 04:54:30;;;;;;;;;16.00;15.00;;;;;17.57;47.39;103098.94;4918460;29;8801;-71
2022/03/23 04:56:55;;;;;;;;;15.00;15.00;;;;;17.55;47.63;103104.13;4915708;29;10479;-71
2022/03/23 04:59:21;;;;;;;;;15.50;15.50;;;;;17.57;47.55;103102.47;4916939;29;8835;-71
2022/03/23 05:01:47;;;;;;;;;15.50;14.75;;;;;17.54;47.54;103107.66;4918083;29;8829;-71
2022/03/23 05:04:12;;;;;;;;;16.50;15.50;;;;;17.54;47.43;103104.09;4922806;29;10438;-71
2022/03/23 05:06:37;;;;;;;;;16.00;16.00;;;;;17.56;47.60;103108.56;4920731;29;8840;-71
2022/03/23 05:09:02;;;;;;;;;15.50;14.25;;;;;17.53;47.55;103108.47;4918219;29;8815;-72
2022/03/23 05:11:28;;;;;;;;;19.25;15.50;;;;;17.54;47.43;103112.03;4915833;29;8817;-71
2022/03/23 05:13:53;;;;;;;;;14.75;14.75;;;;;17.54;47.46;103112.94;4920027;29;8820;-71
2022/03/23 05:16:19;;;;;;;;;16.50;15.50;;;;;17.53;47.34;103113.75;4916284;29;9022;-70
2022/03/23 05:18:44;;;;;;;;;15.50;15.50;;;;;17.53;47.51;103111.13;4915795;29;8812;-71
2022/03/23 05:21:10;;;;;;;;;19.00;19.00;;;;;17.54;47.42;103109.38;4916215;29;8832;-71
2022/03/23 05:23:36;;;;;;;;;17.25;16.25;;;;;17.53;47.22;103113.75;4916243;29;9548;-71
2022/03/23 05:26:01;;;;;;;;;17.00;15.50;;;;;17.49;47.35;103106.59;4914942;29;8954;-71
2022/03/23 05:28:26;;;;;;;;;17.00;15.75;;;;;17.51;47.29;103117.22;4916983;29;8848;-71
2022/03/23 05:30:52;;;;;;;;;15.25;15.00;;;;;17.52;47.33;103125.16;4915821;29;8820;-71
2022/03/23 05:33:17;;;;;;;;;15.75;15.75;;;;;17.52;47.36;103119.88;4915200;29;8812;-71
2022/03/23 05:35:43;;;;;;;;;18.75;16.75;;;;;17.51;47.06;103120.72;4915656;29;8805;-72
2022/03/23 05:38:08;;;;;;;;;16.00;16.00;;;;;17.51;47.24;103114.59;4915417;29;8935;-72
2022/03/23 05:40:34;;;;;;;;;12.00;12.00;;;;;17.52;47.37;103119.00;4914986;29;8808;-72
2022/03/23 05:42:59;;;;;;;;;12.75;12.75;;;;;17.50;47.22;103115.44;4915569;29;8996;-72
2022/03/23 05:45:25;;;;;;;;;14.75;13.50;;;;;17.51;47.06;103123.38;4916614;29;10262;-71
2022/03/23 05:47:53;;;;;;;;;18.50;16.00;;;;;17.50;47.35;103126.00;4915176;29;8876;-71
2022/03/23 05:50:18;;;;;;;;;16.25;16.00;;;;;17.46;47.34;103117.09;4915764;29;8844;-71
2022/03/23 05:52:43;;;;;;;;;14.25;14.00;;;;;17.49;47.11;103125.09;4915363;29;10337;-71
2022/03/23 05:55:09;;;;;;;;;20.25;16.25;;;;;17.50;47.10;103126.88;4914334;29;8947;-72
2022/03/23 05:57:35;;;;;;;;;19.00;14.25;;;;;17.49;47.08;103129.47;4915654;29;8824;-72
2022/03/23 06:00:00;;;;;;;;;13.75;11.75;;;;;17.49;47.26;103130.38;4915034;29;8792;-71
2022/03/23 06:02:28;;;;;;;;;15.25;13.25;;;;;17.49;47.22;103126.81;4914524;29;10359;-71
2022/03/23 06:04:53;;;;;;;;;19.00;14.00;;;;;17.48;46.90;103136.50;4914952;29;8804;-70
2022/03/23 06:07:19;;;;;;;;;17.25;15.00;;;;;17.49;47.12;103138.28;4914271;29;10365;-71
2022/03/23 06:09:44;;;;;;;;;14.00;12.50;;;;;17.49;47.15;103137.41;4915134;29;8839;-71
2022/03/23 06:12:12;;;;;;;;;14.00;14.00;;;;;17.47;46.97;103137.34;4918537;29;8817;-71
2022/03/23 06:14:42;;;;;;;;;20.50;16.00;;;;;17.46;46.98;103132.03;4914910;29;8808;-71
2022/03/23 06:17:07;;;;;;;;;13.25;11.00;;;;;17.46;47.04;103134.66;4915251;29;10340;-72
2022/03/23 06:19:32;;;;;;;;;15.75;14.00;;;;;17.45;47.25;103133.75;4915117;29;10241;-71
2022/03/23 06:21:57;;;;;;;;;15.00;14.00;;;;;17.44;47.20;103131.97;4913428;29;8897;-72
2022/03/23 06:24:23;;;;;;;;;16.25;15.00;;;;;17.46;47.14;103137.31;4914879;29;8835;-72
2022/03/23 06:26:48;;;;;;;;;18.25;15.50;;;;;17.45;47.00;103136.41;4914985;29;8820;-70
2022/03/23 06:29:13;;;;;;;;;16.75;13.75;;;;;17.46;46.93;103143.50;4914064;29;8911;-71
2022/03/23 06:31:39;;;;;;;;;17.75;17.00;;;;;17.47;46.85;103142.63;4914690;29;9505;-71
2022/03/23 06:34:05;;;;;;;;;14.00;14.00;;;;;17.46;47.06;103137.31;4914593;29;8815;-71
2022/03/23 06:36:30;;;;;;;;;15.75;15.00;;;;;17.46;47.11;103137.31;4913865;29;11751;-70
2022/03/23 06:38:58;;;;;;;;;14.75;14.50;;;;;17.44;46.99;103134.59;4914071;29;8797;-72
2022/03/23 06:41:24;;;;;;;;;19.00;17.50;;;;;17.50;47.09;103137.44;4915109;29;9493;-71
2022/03/23 06:43:49;;;;;;;;;19.75;19.25;;;;;17.52;46.73;103140.13;4913942;29;10454;-71
2022/03/23 06:46:20;;;;;;;;;16.25;16.25;;;;;17.53;46.66;103136.63;4914002;29;8832;-71
2022/03/23 06:48:47;;;;;;;;;18.00;15.00;;;;;17.53;46.51;103136.63;4914518;29;8815;-72
2022/03/23 06:51:13;;;;;;;;;19.00;17.50;;;;;17.59;46.47;103142.13;4913421;29;10350;-71
2022/03/23 06:53:38;;;;;;;;;16.00;16.00;;;;;17.58;46.62;103143.00;4914070;29;10244;-71
2022/03/23 06:56:04;;;;;;;;;16.50;15.50;;;;;17.58;46.64;103141.25;4914013;29;10466;-72
2022/03/23 06:58:30;;;;;;;;;21.75;16.25;;;;;17.61;46.41;103149.25;4913738;29;8792;-71
2022/03/23 07:00:57;;;;;;;;;19.00;16.00;;;;;17.62;46.34;103143.09;4914009;29;8804;-71
2022/03/23 07:03:25;;;;;;;;;18.00;16.75;;;;;17.63;46.27;103152.84;4913740;29;10428;-71
2022/03/23 07:05:51;;;;;;;;;18.00;17.25;;;;;17.65;46.12;103156.44;4914445;29;10454;-71
2022/03/23 07:11:00;;;;;;;;;14.50;13.50;;;;;17.77;46.94;103146.19;4913458;29;8804;-77
2022/03/23 07:13:25;;;;;;;;;14.75;13.50;;;;;17.85;47.03;103156.97;4917663;29;10179;-76
2022/03/23 07:15:50;;;;;;;;;16.75;16.75;;;;;17.96;48.72;103155.53;4914275;29;8804;-76
2022/03/23 07:18:16;;;;;;;;;17.00;16.00;;;;;18.05;50.48;103154.91;4913131;29;8816;-74
2022/03/23 07:20:41;;;;;;;;;19.25;18.25;;;;;18.11;51.01;103158.59;4914047;29;8812;-73
2022/03/23 07:23:06;;;;;;;;;16.75;14.50;;;;;18.18;52.89;103162.34;4913887;29;8846;-73
2022/03/23 07:25:32;;;;;;;;;17.00;15.00;;;;;18.27;55.51;103167.88;4913420;29;8808;-73
2022/03/23 07:27:57;;;;;;;;;17.75;17.25;;;;;18.31;56.11;103162.69;4913388;29;8910;-71
2022/03/23 07:30:23;;;;;;;;;13.00;13.00;;;;;18.33;56.61;103160.97;4914073;29;9597;-71
2022/03/23 07:32:50;;;;;;;;;17.25;17.00;;;;;18.35;56.97;103161.03;4912520;29;8812;-71
2022/03/23 07:35:15;;;;;;;;;19.00;17.25;;;;;18.31;57.73;103157.41;4913233;29;8796;-71
2022/03/23 07:37:40;;;;;;;;;21.75;19.25;;;;;18.38;57.72;103171.69;4913717;29;10424;-70
2022/03/23 07:40:06;;;;;;;;;16.50;16.50;;;;;18.37;55.25;103166.38;4909118;29;8827;-70
2022/03/23 07:42:31;;;;;;;;;24.75;22.00;;;;;18.30;54.75;103168.84;4905562;29;9648;-69
2022/03/23 07:44:57;;;;;;;;;19.75;18.25;;;;;18.27;55.10;103170.50;4912926;29;8942;-70
2022/03/23 07:47:22;;;;;;;;;24.25;22.00;;;;;18.23;52.75;103168.63;4912593;29;8831;-69
2022/03/23 07:49:47;;;;;;;;;25.50;24.75;;;;;18.21;52.08;103170.34;4913279;29;9631;-70
2022/03/23 07:52:13;;;;;;;;;27.50;25.25;;;;;18.19;50.60;103172.94;4912716;29;8808;-69
2022/03/23 07:54:38;;;;;;;;;30.25;26.50;;;;;18.16;50.20;103178.16;4919162;29;9552;-69
2022/03/23 07:57:04;;;;;;;;;31.00;28.75;;;;;18.17;48.67;103184.34;4916685;29;8817;-69
2022/03/23 07:59:30;;;;;;;;;34.75;31.75;;;;;18.15;48.50;103189.56;4914319;29;9109;-69
2022/03/23 08:01:55;;;;;;;;;31.50;28.00;;;;;18.14;48.24;103190.44;4913248;29;10946;-70
2022/03/23 08:04:20;;;;;;;;;37.00;30.00;;;;;18.13;47.47;103191.28;4912811;29;8824;-70
2022/03/23 08:06:46;;;;;;;;;32.75;29.25;;;;;18.12;46.57;103193.88;4913082;29;8844;-69
2022/03/23 08:09:11;;;;;;;;;26.75;26.00;;;;;18.11;45.81;103190.34;4916132;29;9598;-70
2022/03/23 08:11:36;;;;;;;;;32.75;28.50;;;;;18.12;45.20;103196.53;4915215;29;8840;-69
2022/03/23 08:14:03;;;;;;;;;32.50;32.00;;;;;18.12;45.43;103191.22;4914814;29;9564;-70
2022/03/23 08:16:29;;;;;;;;;34.00;30.00;;;;;18.12;45.19;103199.16;4913908;29;9476;-70
2022/03/23 08:18:54;;;;;;;;;37.75;32.50;;;;;18.10;45.04;103196.50;4913240;29;11037;-69
2022/03/23 08:21:21;;;;;;;;;40.75;34.00;;;;;18.10;45.04;103198.25;4911587;29;8845;-70
2022/03/23 08:23:49;;;;;;;;;32.50;30.75;;;;;18.09;44.74;103199.09;4913579;29;8820;-70
2022/03/23 08:26:16;;;;;;;;;31.50;28.75;;;;;18.10;44.63;103193.84;4913090;29;11092;-70
2022/03/23 08:28:42;;;;;;;;;33.25;33.25;;;;;18.12;44.01;103193.88;4913087;29;11105;-70
2022/03/23 08:31:09;;;;;;;;;30.75;28.50;;;;;18.12;44.32;103194.78;4911630;29;11155;-70
2022/03/23 08:33:34;;;;;;;;;30.25;28.50;;;;;18.12;43.90;103193.88;4913448;29;11811;-70
2022/03/23 08:36:04;;;;;;;;;30.50;28.75;;;;;18.10;44.16;103191.22;4913663;29;11091;-70
2022/03/23 08:38:30;;;;;;;;;29.50;28.00;;;;;18.12;44.14;103189.50;4914101;29;9613;-71
2022/03/23 08:40:56;;;;;;;;;31.75;27.50;;;;;18.13;43.45;103199.22;4912155;29;11026;-69
2022/03/23 08:43:21;;;;;;;;;32.00;28.00;;;;;18.13;43.41;103191.28;4913248;29;8884;-70
2022/03/23 08:45:47;;;;;;;;;33.25;31.50;;;;;18.15;43.05;103188.66;4916681;29;11619;-70
2022/03/23 08:48:13;;;;;;;;;32.75;31.50;;;;;18.15;43.11;103186.94;4917045;29;8820;-69
2022/03/23 08:50:40;;;;;;;;;38.00;34.25;;;;;18.17;43.41;103198.47;4915847;29;8859;-70
2022/03/23 08:53:05;;;;;;;;;36.50;32.75;;;;;18.19;43.04;103195.84;4917274;29;8835;-70
2022/03/23 08:55:31;;;;;;;;;31.75;31.25;;;;;18.18;43.16;103194.94;4917564;29;10914;-70
2022/03/23 08:57:57;;;;;;;;;28.50;27.00;;;;;18.19;42.88;103196.75;4916377;29;8832;-70
2022/03/23 09:00:22;;;;;;;;;32.75;32.75;;;;;18.18;42.63;103194.94;4915258;29;9596;-70
2022/03/23 09:02:48;;;;;;;;;34.25;32.00;;;;;18.20;42.49;103190.59;4916342;29;8793;-70
2022/03/23 09:05:14;;;;;;;;;36.75;34.75;;;;;18.20;42.63;103192.34;4915818;29;8883;-69
2022/03/23 09:07:40;;;;;;;;;34.50;31.75;;;;;18.21;42.60;103202.97;4917110;29;9556;-70
2022/03/23 09:10:07;;;;;;;;;26.75;24.75;;;;;18.21;42.43;103196.78;4915602;29;11022;-70
2022/03/23 09:12:33;;;;;;;;;32.75;32.75;;;;;18.21;42.61;103197.69;4919715;29;10783;-71
2022/03/23 09:15:01;;;;;;;;;29.75;28.75;;;;;18.24;42.05;103194.22;4916321;29;10943;-70
2022/03/23 09:17:26;;;;;;;;;37.25;31.75;;;;;18.22;42.41;103198.59;4915910;29;8828;-71
2022/03/23 09:19:51;;;;;;;;;32.50;30.50;;;;;18.26;42.29;103203.09;4916557;29;10780;-70
2022/03/23 09:22:21;;;;;;;;;38.00;34.50;;;;;18.26;41.91;103197.78;4916143;29;8963;-70
2022/03/23 09:24:46;;;;;;;;;34.50;33.00;;;;;18.28;42.21;103202.28;4915682;29;8796;-70
2022/03/23 09:27:11;;;;;;;;;29.75;27.75;;;;;18.28;42.02;103201.41;4921988;29;10907;-70
2022/03/23 09:29:37;;;;;;;;;34.75;30.25;;;;;18.30;42.02;103203.22;4915958;29;8868;-69
2022/03/23 09:32:09;;;;;;;;;32.75;31.25;;;;;18.31;41.88;103201.47;4915185;29;8824;-70
2022/03/23 09:34:34;;;;;;;;;34.00;30.75;;;;;18.32;42.02;103198.88;4915316;29;8848;-70
2022/03/23 09:39:43;;;;;;;;;31.25;30.25;;;;;18.34;41.67;103199.81;4915468;29;8764;-69
2022/03/23 09:42:09;;;;;;;;;28.00;27.50;;;;;18.35;41.37;103203.34;4912866;29;11094;-70
2022/03/23 09:44:35;;;;;;;;;33.00;28.50;;;;;18.35;41.67;103198.97;4883983;29;8840;-71
2022/03/23 09:47:01;;;;;;;;;29.50;27.75;;;;;18.40;41.48;103203.47;4914910;29;10717;-71
2022/03/23 09:49:26;;;;;;;;;31.75;30.50;;;;;18.40;41.47;103198.19;4915801;29;8824;-71
2022/03/23 09:51:53;;;;;;;;;30.00;28.75;;;;;18.42;40.89;103197.38;4915989;29;10765;-70
2022/03/23 09:54:20;;;;;;;;;30.50;26.50;;;;;18.45;41.42;103196.53;4914349;29;8808;-71
2022/03/23 09:56:45;;;;;;;;;29.00;27.00;;;;;18.46;41.28;103204.53;4913518;29;10882;-70
2022/03/23 09:59:10;;;;;;;;;32.50;27.25;;;;;18.47;41.64;103200.16;4913825;29;10599;-70
2022/03/23 10:01:49;;;;;;;;;36.00;29.50;;;;;18.47;41.37;103198.41;4914508;29;8998;-69
2022/03/23 10:04:20;;;;;;;;;30.25;27.75;;;;;18.48;41.66;103201.94;4914594;29;8824;-70
2022/03/23 10:07:14;;;;;;;;;31.00;29.25;;;;;18.49;41.29;103196.69;4913040;29;11408;-69
2022/03/23 10:10:16;;;;;;;;;34.75;30.25;;;;;18.52;41.14;103202.06;4914981;29;10638;-69
2022/03/23 10:13:12;;;;;;;;;32.75;28.75;;;;;18.60;41.24;103194.34;4916952;29;11128;-71
2022/03/23 10:16:22;;;;;;;;;30.25;30.25;;;;;18.53;40.14;103192.38;4912318;29;10894;-70
2022/03/23 10:19:00;;;;;;;;;35.75;30.50;;;;;18.51;40.58;103196.72;4914572;29;10967;-69
2022/03/23 10:21:28;;;;;;;;;31.00;28.25;;;;;18.49;40.62;103193.13;4913894;29;10804;-71
2022/03/23 10:23:59;;;;;;;;;31.00;30.50;;;;;18.48;40.90;103194.00;4914569;29;10787;-70
2022/03/23 10:26:25;;;;;;;;;28.75;26.75;;;;;18.51;40.62;103187.06;4912496;29;10775;-70
2022/03/23 10:28:51;;;;;;;;;32.00;28.50;;;;;18.49;40.78;103194.03;4906255;29;10734;-70
2022/03/23 10:31:19;;;;;;;;;30.25;27.25;;;;;18.46;40.66;103196.59;4913843;29;10721;-70
2022/03/23 10:33:59;;;;;;;;;28.25;22.75;;;;;18.52;40.57;103190.63;4914602;29;8823;-71
2022/03/23 10:36:28;;;;;;;;;29.75;28.50;;;;;18.52;40.66;103186.19;4912177;29;10616;-72
2022/03/23 10:39:02;;;;;;;;;25.50;24.50;;;;;18.50;40.56;103176.41;4914230;29;10612;-71
2022/03/23 10:41:30;;;;;;;;;33.50;29.00;;;;;18.53;40.47;103192.38;4913530;29;10672;-70
2022/03/23 10:43:57;;;;;;;;;26.50;24.75;;;;;18.61;40.96;103180.25;4914018;29;10741;-71
2022/03/23 10:46:22;;;;;;;;;24.00;24.00;;;;;18.56;40.75;103188.06;4911407;29;10606;-70
2022/03/23 10:49:01;;;;;;;;;28.00;24.00;;;;;18.54;40.58;103180.97;4913802;29;10766;-72
2022/03/23 10:51:29;;;;;;;;;21.50;21.00;;;;;18.67;40.60;103186.59;4914535;29;8808;-70
2022/03/23 10:53:58;;;;;;;;;23.75;23.25;;;;;18.64;40.91;103189.16;4915373;29;10534;-70
2022/03/23 10:56:36;;;;;;;;;26.50;23.00;;;;;18.61;40.64;103181.16;4917920;29;10581;-71
2022/03/23 10:59:22;;;;;;;;;26.00;22.25;;;;;18.68;40.80;103187.50;4936348;29;10583;-71
2022/03/23 11:02:08;;;;;;;;;26.00;23.00;;;;;18.69;40.78;103182.25;4939912;29;11445;-69
2022/03/23 11:04:43;;;;;;;;;21.50;19.25;;;;;18.68;40.77;103183.09;4935216;29;10603;-70
2022/03/23 11:07:35;;;;;;;;;24.50;22.50;;;;;18.65;41.01;103183.03;4932957;29;10747;-69
2022/03/23 11:15:52;;;;;;;;;28.00;23.50;;;;;18.67;41.12;103189.25;4940860;29;10391;-70
2022/03/23 11:18:20;;;;;;;;;28.00;24.75;;;;;18.68;40.91;103176.91;4938841;29;11202;-70
2022/03/23 11:20:56;;;;;;;;;24.25;22.50;;;;;18.70;41.07;103183.16;4935561;29;10727;-71
2022/03/23 11:23:24;;;;;;;;;23.75;22.50;;;;;18.69;40.91;103184.00;4924734;29;10610;-70
2022/03/23 11:25:56;;;;;;;;;20.75;18.25;;;;;18.68;40.85;103179.56;4914456;29;10509;-70
2022/03/23 11:28:22;;;;;;;;;24.75;21.25;;;;;18.70;41.13;103169.94;4914163;29;10494;-70
2022/03/23 11:30:50;;;;;;;;;23.00;22.75;;;;;18.72;40.92;103176.13;4913247;29;10469;-71
2022/03/23 11:33:21;;;;;;;;;22.50;20.50;;;;;18.72;40.96;103178.78;4913392;29;10732;-70